createdAt,value
2023-03-19T00:00:33.081Z,8.73
2023-03-19T00:02:59.946Z,5.70
2023-03-19T00:05:26.639Z,4.40
2023-03-19T00:07:53.134Z,4.60
2023-03-19T00:10:22.305Z,5.88
2023-03-19T00:12:48.877Z,6.00
2023-03-19T00:15:16.091Z,6.07
2023-03-19T00:17:43.139Z,6.60
2023-03-19T00:20:11.747Z,5.75
2023-03-19T00:22:39.669Z,7.18
2023-03-19T00:25:06.871Z,6.47
2023-03-19T00:27:33.904Z,5.82
2023-03-19T00:30:02.100Z,5.47
2023-03-19T00:32:28.711Z,5.10
2023-03-19T00:34:55.227Z,4.25
2023-03-19T00:37:21.932Z,6.43
2023-03-19T00:39:48.389Z,6.10
2023-03-19T00:42:15.002Z,6.45
2023-03-19T00:44:41.488Z,6.50
2023-03-19T00:47:08.102Z,6.97
2023-03-19T00:49:34.676Z,6.25
2023-03-19T00:52:01.242Z,5.28
2023-03-19T00:54:27.746Z,5.57
2023-03-19T00:56:54.275Z,7.57
2023-03-19T01:01:40.097Z,4.68
2023-03-19T01:04:06.751Z,5.57
2023-03-19T01:06:34.902Z,4.32
2023-03-19T01:09:01.731Z,4.93
2023-03-19T01:11:28.369Z,4.90
2023-03-19T01:13:54.902Z,5.30
2023-03-19T01:16:21.545Z,4.82
2023-03-19T01:18:48.142Z,4.60
2023-03-19T01:21:14.778Z,5.10
2023-03-19T01:23:41.339Z,5.00
2023-03-19T01:26:08.503Z,4.57
2023-03-19T01:28:35.042Z,5.00
2023-03-19T01:31:02.890Z,5.05
2023-03-19T01:35:56.378Z,4.13
2023-03-19T01:38:22.863Z,4.37
2023-03-19T01:40:49.588Z,3.83
2023-03-19T01:43:27.307Z,4.45
2023-03-19T01:48:49.750Z,3.50
2023-03-19T01:51:18.905Z,4.13
2023-03-19T01:53:52.964Z,5.32
2023-03-19T01:56:27.623Z,4.15
2023-03-19T01:59:01.283Z,4.10
2023-03-19T02:01:29.474Z,3.20
2023-03-19T02:03:56.552Z,3.65
2023-03-19T02:06:23.877Z,3.00
2023-03-19T02:08:52.141Z,3.30
2023-03-19T02:11:19.563Z,3.10
2023-03-19T02:13:47.188Z,3.20
2023-03-19T02:16:15.481Z,5.20
2023-03-19T02:18:42.535Z,3.13
2023-03-19T02:21:13.066Z,3.40
2023-03-19T02:24:12.617Z,3.25
2023-03-19T02:26:41.756Z,3.03
2023-03-19T02:29:08.602Z,3.38
2023-03-19T02:31:35.761Z,3.10
2023-03-19T02:34:04.979Z,3.13
2023-03-19T02:36:43.203Z,3.45
2023-03-19T02:39:21.173Z,3.30
2023-03-19T02:41:49.047Z,2.92
2023-03-19T02:44:19.969Z,2.88
2023-03-19T02:46:46.967Z,3.65
2023-03-19T02:49:13.613Z,3.60
2023-03-19T02:51:42.036Z,3.15
2023-03-19T02:54:08.951Z,3.30
2023-03-19T02:56:35.679Z,3.10
2023-03-19T02:59:02.653Z,2.67
2023-03-19T03:01:30.162Z,2.60
2023-03-19T03:03:56.879Z,3.00
2023-03-19T03:06:23.406Z,3.03
2023-03-19T03:08:49.969Z,3.30
2023-03-19T03:11:16.541Z,2.70
2023-03-19T03:13:43.056Z,2.97
2023-03-19T03:16:09.772Z,2.55
2023-03-19T03:18:36.861Z,3.08
2023-03-19T03:21:03.708Z,3.57
2023-03-19T03:23:30.262Z,3.17
2023-03-19T03:25:56.906Z,3.15
2023-03-19T03:28:24.645Z,2.88
2023-03-19T03:30:51.328Z,2.92
2023-03-19T03:33:18.159Z,3.40
2023-03-19T03:35:44.652Z,3.97
2023-03-19T03:38:11.548Z,4.50
2023-03-19T03:40:38.311Z,2.70
2023-03-19T03:43:05.077Z,3.28
2023-03-19T03:45:32.196Z,3.03
2023-03-19T03:47:58.764Z,3.37
2023-03-19T03:50:25.240Z,3.38
2023-03-19T03:52:51.901Z,3.10
2023-03-19T03:55:18.400Z,2.50
2023-03-19T03:57:44.951Z,2.88
2023-03-19T04:00:12.641Z,3.50
2023-03-19T04:02:39.329Z,3.10
2023-03-19T04:05:06.703Z,2.97
2023-03-19T04:07:33.189Z,2.47
2023-03-19T04:09:59.795Z,3.00
2023-03-19T04:12:26.358Z,2.92
2023-03-19T04:14:52.970Z,3.80
2023-03-19T04:17:19.572Z,3.17
2023-03-19T04:19:46.025Z,3.05
2023-03-19T04:22:13.122Z,2.90
2023-03-19T04:24:39.685Z,2.73
2023-03-19T04:27:07.299Z,3.22
2023-03-19T04:29:34.234Z,3.00
2023-03-19T04:32:00.941Z,2.78
2023-03-19T04:34:27.416Z,2.60
2023-03-19T04:36:53.952Z,2.63
2023-03-19T04:39:20.447Z,2.70
2023-03-19T04:41:46.918Z,2.55
2023-03-19T04:44:13.657Z,2.83
2023-03-19T04:46:40.311Z,2.53
2023-03-19T04:49:06.784Z,2.47
2023-03-19T04:51:33.502Z,3.17
2023-03-19T04:54:00.052Z,2.47
2023-03-19T04:56:27.775Z,2.45
2023-03-19T04:58:54.477Z,2.70
2023-03-19T05:01:21.106Z,2.35
2023-03-19T05:03:47.694Z,2.33
2023-03-19T05:06:14.316Z,2.25
2023-03-19T05:08:40.852Z,2.53
2023-03-19T05:11:07.549Z,2.35
2023-03-19T05:13:34.119Z,2.30
2023-03-19T05:16:01.668Z,2.65
2023-03-19T05:18:29.374Z,2.30
2023-03-19T05:20:56.176Z,2.00
2023-03-19T05:23:23.079Z,2.63
2023-03-19T05:25:49.751Z,2.15
2023-03-19T05:28:16.359Z,2.25
2023-03-19T05:30:43.584Z,2.20
2023-03-19T05:33:10.562Z,2.35
2023-03-19T05:35:38.023Z,1.80
2023-03-19T05:38:05.574Z,2.20
2023-03-19T05:40:33.977Z,2.53
2023-03-19T05:43:00.706Z,2.30
2023-03-19T05:45:27.394Z,2.60
2023-03-19T05:47:53.904Z,1.98
2023-03-19T05:50:20.775Z,2.33
2023-03-19T05:52:47.325Z,2.33
2023-03-19T05:55:13.865Z,2.40
2023-03-19T05:57:40.466Z,1.90
2023-03-19T06:00:08.045Z,1.90
2023-03-19T06:02:36.497Z,2.00
2023-03-19T06:05:06.485Z,2.00
2023-03-19T06:07:33.047Z,1.90
2023-03-19T06:09:59.568Z,1.90
2023-03-19T06:12:26.043Z,2.05
2023-03-19T06:14:52.568Z,1.80
2023-03-19T06:17:19.906Z,2.38
2023-03-19T06:19:46.619Z,1.98
2023-03-19T06:22:13.106Z,1.65
2023-03-19T06:24:39.768Z,2.22
2023-03-19T06:27:06.376Z,2.10
2023-03-19T06:29:32.823Z,1.88
2023-03-19T06:31:59.525Z,1.98
2023-03-19T06:34:26.541Z,2.00
2023-03-19T06:36:53.926Z,2.17
2023-03-19T06:39:20.501Z,2.10
2023-03-19T06:41:47.346Z,1.75
2023-03-19T06:44:13.810Z,1.75
2023-03-19T06:46:40.694Z,1.88
2023-03-19T06:49:07.154Z,1.67
2023-03-19T06:51:33.634Z,1.58
2023-03-19T06:54:00.298Z,1.42
2023-03-19T06:56:27.195Z,1.90
2023-03-19T06:58:53.666Z,1.70
2023-03-19T07:01:20.583Z,1.30
2023-03-19T07:03:47.546Z,1.43
2023-03-19T07:06:14.084Z,1.40
2023-03-19T07:08:46.171Z,1.33
2023-03-19T07:11:13.685Z,1.70
2023-03-19T07:13:40.368Z,1.48
2023-03-19T07:16:07.363Z,1.55
2023-03-19T07:18:34.058Z,1.80
2023-03-19T07:21:00.771Z,1.63
2023-03-19T07:23:27.453Z,1.83
2023-03-19T07:25:53.901Z,2.05
2023-03-19T07:28:20.704Z,1.75
2023-03-19T07:33:40.446Z,1.70
2023-03-19T07:36:08.069Z,1.93
2023-03-19T07:38:34.537Z,1.52
2023-03-19T07:41:03.013Z,1.35
2023-03-19T07:43:31.390Z,3.08
2023-03-19T07:45:59.158Z,1.92
2023-03-19T07:48:25.798Z,3.00
2023-03-19T07:50:52.725Z,1.10
2023-03-19T07:53:19.664Z,1.15
2023-03-19T07:55:47.890Z,1.47
2023-03-19T07:58:15.232Z,1.08
2023-03-19T08:00:41.940Z,1.40
2023-03-19T08:03:08.586Z,1.45
2023-03-19T08:05:35.400Z,1.50
2023-03-19T08:08:02.016Z,0.88
2023-03-19T08:10:28.702Z,1.17
2023-03-19T08:12:55.303Z,0.75
2023-03-19T08:15:24.590Z,1.00
2023-03-19T08:18:02.221Z,1.05
2023-03-19T08:22:56.921Z,1.13
2023-03-19T08:25:24.487Z,1.52
2023-03-19T08:27:51.063Z,5.72
2023-03-19T08:30:18.264Z,5.82
2023-03-19T08:32:47.761Z,1.48
2023-03-19T08:35:14.405Z,1.10
2023-03-19T08:37:41.733Z,1.65
2023-03-19T08:40:09.309Z,1.75
2023-03-19T08:42:38.873Z,1.58
2023-03-19T08:45:06.354Z,1.35
2023-03-19T08:47:32.884Z,1.27
2023-03-19T08:49:59.325Z,1.55
2023-03-19T08:52:26.070Z,1.65
2023-03-19T08:54:52.573Z,1.35
2023-03-19T08:57:19.513Z,1.77
2023-03-19T08:59:46.141Z,1.70
2023-03-19T09:02:13.231Z,1.77
2023-03-19T09:04:43.984Z,1.40
2023-03-19T09:07:15.596Z,1.92
2023-03-19T09:09:43.505Z,1.73
2023-03-19T09:14:38.019Z,1.85
2023-03-19T09:17:05.058Z,1.80
2023-03-19T09:19:31.858Z,2.20
2023-03-19T09:21:58.363Z,1.83
2023-03-19T09:24:25.012Z,1.70
2023-03-19T09:26:52.039Z,13.43
2023-03-19T09:29:18.606Z,20.97
2023-03-19T09:31:45.362Z,3.90
2023-03-19T09:34:13.910Z,2.13
2023-03-19T09:36:40.552Z,2.10
2023-03-19T09:39:08.393Z,2.10
2023-03-19T09:44:41.258Z,2.15
2023-03-19T09:47:23.996Z,2.38
2023-03-19T09:49:51.458Z,2.50
2023-03-19T09:52:39.545Z,17.77
2023-03-19T09:55:16.320Z,15.35
2023-03-19T09:57:42.818Z,2.67
2023-03-19T10:00:22.640Z,2.10
2023-03-19T10:02:58.572Z,2.30
2023-03-19T10:05:45.426Z,2.00
2023-03-19T10:08:58.358Z,2.63
2023-03-19T10:11:27.976Z,2.28
2023-03-19T10:14:19.643Z,2.22
2023-03-19T10:16:49.240Z,4.72
2023-03-19T10:19:22.288Z,28.15
2023-03-19T10:21:57.179Z,4.10
2023-03-19T10:24:37.401Z,2.80
2023-03-19T10:27:20.784Z,2.47
2023-03-19T10:29:47.519Z,8.02
2023-03-19T10:32:28.367Z,4.60
2023-03-19T10:34:58.548Z,2.42
2023-03-19T10:37:28.519Z,2.70
2023-03-19T10:40:00.252Z,2.25
2023-03-19T10:42:57.134Z,2.25
2023-03-19T10:45:39.020Z,1.70
2023-03-19T10:48:06.544Z,2.20
2023-03-19T10:50:38.581Z,1.65
2023-03-19T10:53:26.068Z,1.80
2023-03-19T10:58:37.074Z,1.45
2023-03-19T11:01:09.696Z,2.05
2023-03-19T11:03:39.552Z,6.05
2023-03-19T11:06:18.182Z,11.32
2023-03-19T11:09:01.308Z,10.70
2023-03-19T11:11:43.832Z,2.22
2023-03-19T11:14:17.631Z,1.92
2023-03-19T11:16:58.161Z,2.00
2023-03-19T11:19:28.203Z,2.78
2023-03-19T11:22:18.944Z,1.77
2023-03-19T11:25:01.128Z,2.42
2023-03-19T11:27:34.897Z,8.07
2023-03-19T11:30:04.051Z,1.80
2023-03-19T11:32:37.250Z,1.50
2023-03-19T11:35:21.981Z,1.90
2023-03-19T11:37:56.357Z,1.98
2023-03-19T11:40:55.477Z,1.65
2023-03-19T11:43:46.766Z,1.45
2023-03-19T11:46:41.805Z,1.50
2023-03-19T11:49:20.508Z,2.78
2023-03-19T11:52:04.014Z,2.67
2023-03-19T11:54:56.527Z,2.40
2023-03-19T11:57:50.718Z,2.00
2023-03-19T12:00:31.226Z,2.42
2023-03-19T12:03:11.743Z,3.00
2023-03-19T12:06:02.467Z,1.80
2023-03-19T12:08:55.098Z,1.65
2023-03-19T12:11:57.883Z,1.88
2023-03-19T12:14:52.555Z,1.50
2023-03-19T12:17:30.235Z,1.67
2023-03-19T12:20:20.364Z,1.52
2023-03-19T12:23:06.607Z,1.55
2023-03-19T12:26:00.380Z,1.15
2023-03-19T12:28:30.440Z,1.00
2023-03-19T12:31:24.843Z,1.70
2023-03-19T12:34:06.620Z,1.80
2023-03-19T12:36:38.894Z,0.52
2023-03-19T12:39:20.964Z,0.65
2023-03-19T12:41:49.493Z,0.85
2023-03-19T12:44:26.054Z,0.65
2023-03-19T12:47:05.324Z,0.75
2023-03-19T12:49:36.390Z,0.63
2023-03-19T12:52:31.299Z,1.25
2023-03-19T12:55:17.058Z,0.95
2023-03-19T12:57:50.981Z,1.20
2023-03-19T13:00:35.779Z,0.60
2023-03-19T13:03:18.711Z,0.57
2023-03-19T13:05:55.578Z,0.50
2023-03-19T13:08:47.435Z,0.80
2023-03-19T13:11:21.587Z,2.53
2023-03-19T13:14:02.130Z,1.30
2023-03-19T13:17:11.213Z,1.63
2023-03-19T13:19:46.625Z,2.28
2023-03-19T13:22:18.455Z,2.50
2023-03-19T13:24:47.028Z,1.73
2023-03-19T13:27:29.755Z,2.17
2023-03-19T13:30:03.898Z,1.25
2023-03-19T13:32:56.644Z,1.48
2023-03-19T13:35:35.953Z,1.83
2023-03-19T13:38:27.757Z,3.38
2023-03-19T13:40:59.302Z,3.47
2023-03-19T13:43:29.116Z,3.88
2023-03-19T13:46:36.055Z,5.18
2023-03-19T13:49:47.420Z,3.63
2023-03-19T13:52:13.848Z,3.53
2023-03-19T13:54:41.564Z,3.50
2023-03-19T13:57:18.316Z,3.78
2023-03-19T13:59:50.734Z,4.07
2023-03-19T14:02:26.272Z,4.15
2023-03-19T14:05:17.236Z,3.92
2023-03-19T14:07:50.578Z,3.70
2023-03-19T14:10:27.924Z,4.63
2023-03-19T14:13:14.177Z,3.65
2023-03-19T14:15:49.223Z,3.40
2023-03-19T14:18:20.915Z,3.00
2023-03-19T14:20:58.457Z,3.40
2023-03-19T14:23:40.927Z,3.42
2023-03-19T14:26:16.992Z,4.00
2023-03-19T14:28:54.971Z,3.30
2023-03-19T14:31:50.348Z,4.00
2023-03-19T14:34:19.802Z,3.22
2023-03-19T14:36:51.536Z,4.10
2023-03-19T14:39:31.330Z,3.85
2023-03-19T14:42:22.362Z,4.07
2023-03-19T14:45:14.469Z,4.20
2023-03-19T14:48:22.731Z,7.22
2023-03-19T14:51:07.075Z,5.82
2023-03-19T14:53:54.421Z,5.90
2023-03-19T14:56:26.197Z,7.10
2023-03-19T14:58:59.512Z,6.93
2023-03-19T15:01:27.421Z,7.28
2023-03-19T15:04:08.058Z,8.40
2023-03-19T15:06:40.511Z,7.85
2023-03-19T15:09:17.112Z,8.57
2023-03-19T15:12:22.436Z,8.55
2023-03-19T15:14:51.688Z,11.75
2023-03-19T15:17:31.349Z,8.20
2023-03-19T15:20:02.797Z,11.93
2023-03-19T15:22:32.197Z,9.27
2023-03-19T15:25:10.249Z,9.48
2023-03-19T15:27:37.180Z,8.48
2023-03-19T15:30:19.161Z,7.70
2023-03-19T15:32:56.397Z,7.32
2023-03-19T15:35:38.599Z,8.35
2023-03-19T15:38:11.428Z,8.25
2023-03-19T15:40:39.228Z,9.13
2023-03-19T15:45:36.036Z,15.40
2023-03-19T15:48:18.428Z,15.23
2023-03-19T15:50:47.515Z,9.27
2023-03-19T15:53:22.384Z,9.02
2023-03-19T15:55:51.469Z,8.02
2023-03-19T15:58:25.062Z,6.93
2023-03-19T16:00:54.132Z,8.40
2023-03-19T16:03:33.405Z,7.32
2023-03-19T16:06:03.136Z,7.22
2023-03-19T16:08:30.615Z,9.45
2023-03-19T16:11:14.501Z,9.05
2023-03-19T16:13:46.807Z,6.75
2023-03-19T16:16:21.679Z,7.07
2023-03-19T16:18:51.636Z,6.82
2023-03-19T16:21:21.919Z,6.10
2023-03-19T16:24:08.550Z,7.38
2023-03-19T16:26:40.714Z,6.37
2023-03-19T16:29:23.037Z,7.65
2023-03-19T16:31:52.903Z,7.70
2023-03-19T16:34:34.557Z,40.72
2023-03-19T16:37:01.553Z,8.05
2023-03-19T16:39:30.829Z,7.03
2023-03-19T16:42:09.398Z,8.30
2023-03-19T16:44:40.549Z,8.30
2023-03-19T16:47:17.062Z,8.35
2023-03-19T16:49:46.980Z,10.55
2023-03-19T16:52:21.693Z,15.32
2023-03-19T16:54:51.991Z,13.35
2023-03-19T16:57:20.271Z,14.75
2023-03-19T16:59:47.494Z,14.23
2023-03-19T17:02:16.808Z,14.10
2023-03-19T17:04:43.650Z,13.35
2023-03-19T17:07:11.043Z,12.63
2023-03-19T17:09:38.145Z,12.30
2023-03-19T17:12:07.038Z,10.50
2023-03-19T17:14:34.452Z,8.00
2023-03-19T17:17:02.838Z,10.18
2023-03-19T17:19:35.887Z,11.57
2023-03-19T17:22:03.114Z,13.45
2023-03-19T17:24:32.538Z,10.77
2023-03-19T17:27:01.905Z,10.65
2023-03-19T17:29:29.656Z,9.80
2023-03-19T17:32:02.008Z,9.77
2023-03-19T17:34:32.106Z,9.13
2023-03-19T17:37:01.141Z,8.90
2023-03-19T17:39:32.966Z,7.78
2023-03-19T17:42:00.155Z,7.70
2023-03-19T17:44:30.020Z,6.57
2023-03-19T17:47:00.402Z,7.35
2023-03-19T17:49:30.185Z,10.30
2023-03-19T17:51:58.020Z,8.40
2023-03-19T17:56:57.068Z,7.25
2023-03-19T17:59:23.849Z,8.23
2023-03-19T18:01:52.213Z,8.63
2023-03-19T18:04:20.982Z,8.85
2023-03-19T18:06:54.330Z,9.23
2023-03-19T18:09:28.303Z,9.90
2023-03-19T18:11:55.162Z,12.00
2023-03-19T18:14:21.906Z,10.07
2023-03-19T18:16:48.712Z,10.82
2023-03-19T18:19:31.577Z,11.02
2023-03-19T18:21:58.564Z,10.35
2023-03-19T18:24:25.242Z,11.23
2023-03-19T18:26:51.967Z,12.05
2023-03-19T18:29:18.592Z,10.65
2023-03-19T18:31:48.593Z,11.52
2023-03-19T18:34:16.688Z,12.02
2023-03-19T18:36:43.412Z,16.45
2023-03-19T18:39:14.849Z,28.08
2023-03-19T18:41:41.788Z,18.83
2023-03-19T18:44:09.192Z,14.47
2023-03-19T18:46:38.192Z,14.40
2023-03-19T18:49:25.339Z,14.27
2023-03-19T18:52:08.659Z,14.60
2023-03-19T18:58:41.113Z,14.02
2023-03-19T19:01:07.728Z,15.20
2023-03-19T19:03:35.270Z,24.02
2023-03-19T19:08:42.510Z,21.73
2023-03-19T19:14:00.404Z,15.10
2023-03-19T19:16:35.192Z,16.98
2023-03-19T19:19:03.018Z,22.15
2023-03-19T19:21:29.577Z,23.55
2023-03-19T19:23:56.245Z,26.77
2023-03-19T19:26:29.759Z,23.52
2023-03-19T19:28:59.343Z,29.85
2023-03-19T19:31:29.592Z,26.05
2023-03-19T19:33:58.826Z,23.88
2023-03-19T19:36:27.668Z,22.40
2023-03-19T19:38:55.386Z,20.65
2023-03-19T19:41:24.346Z,20.08
2023-03-19T19:43:53.526Z,19.65
2023-03-19T19:46:26.494Z,19.38
2023-03-19T19:48:53.235Z,19.67
2023-03-19T19:51:23.610Z,20.40
2023-03-19T19:53:50.970Z,18.23
2023-03-19T19:56:21.565Z,14.18
2023-03-19T19:58:53.315Z,16.60
2023-03-19T20:01:22.809Z,16.25
2023-03-19T20:03:50.457Z,15.68
2023-03-19T20:06:17.736Z,15.48
2023-03-19T20:08:51.153Z,12.70
2023-03-19T20:11:23.017Z,15.70
2023-03-19T20:13:54.627Z,14.80
2023-03-19T20:16:24.143Z,14.95
2023-03-19T20:18:53.890Z,13.70
2023-03-19T20:21:25.280Z,14.80
2023-03-19T20:23:55.570Z,13.23
2023-03-19T20:26:27.218Z,12.20
2023-03-19T20:28:54.605Z,12.13
2023-03-19T20:31:31.800Z,7.95
2023-03-19T20:33:58.804Z,12.05
2023-03-19T20:36:29.628Z,10.40
2023-03-19T20:38:56.295Z,11.30
2023-03-19T20:41:27.222Z,12.02
2023-03-19T20:43:57.868Z,12.02
2023-03-19T20:46:33.005Z,13.70
2023-03-19T20:49:01.597Z,13.02
2023-03-19T20:51:31.678Z,13.68
2023-03-19T20:53:58.964Z,13.43
2023-03-19T20:56:29.364Z,13.80
2023-03-19T20:58:56.309Z,15.98
2023-03-19T21:01:26.190Z,15.83
2023-03-19T21:03:53.391Z,18.45
2023-03-19T21:06:42.601Z,17.75
2023-03-19T21:09:17.904Z,16.40
2023-03-19T21:14:18.551Z,21.63
2023-03-19T21:16:48.398Z,23.52
2023-03-19T21:19:17.148Z,25.35
2023-03-19T21:21:48.242Z,23.95
2023-03-19T21:24:22.334Z,25.10
2023-03-19T21:26:49.288Z,26.80
2023-03-19T21:29:24.452Z,27.83
2023-03-19T21:31:54.343Z,26.27
2023-03-19T21:34:20.993Z,27.52
2023-03-19T21:36:47.728Z,27.95
2023-03-19T21:39:14.561Z,27.08
2023-03-19T21:41:46.350Z,25.08
2023-03-19T21:44:16.389Z,29.10
2023-03-19T21:46:47.542Z,26.98
2023-03-19T21:49:14.868Z,30.05
2023-03-19T21:51:45.326Z,27.27
2023-03-19T21:54:15.781Z,28.90
2023-03-19T21:56:45.267Z,28.95
2023-03-19T21:59:29.393Z,26.75
2023-03-19T22:01:59.390Z,26.98
2023-03-19T22:04:28.503Z,26.80
2023-03-19T22:06:56.534Z,27.35
2023-03-19T22:09:26.321Z,26.30
2023-03-19T22:11:53.029Z,26.50
2023-03-19T22:14:31.528Z,27.23
2023-03-19T22:17:02.798Z,26.95
2023-03-19T22:19:29.855Z,26.83
2023-03-19T22:21:56.520Z,27.40
2023-03-19T22:24:25.850Z,25.73
2023-03-19T22:26:59.029Z,24.63
2023-03-19T22:29:25.816Z,24.35
2023-03-19T22:31:56.452Z,24.08
2023-03-19T22:34:26.148Z,24.63
2023-03-19T22:36:52.625Z,17.92
2023-03-19T22:39:19.637Z,20.25
2023-03-19T22:41:48.553Z,22.47
2023-03-19T22:44:28.872Z,22.90
2023-03-19T22:46:59.276Z,21.73
2023-03-19T22:49:30.083Z,19.17
2023-03-19T22:51:57.717Z,19.35
2023-03-19T22:54:27.586Z,18.23
2023-03-19T22:56:57.364Z,16.52
2023-03-19T22:59:23.933Z,14.75
2023-03-19T23:01:50.546Z,14.10
2023-03-19T23:04:23.351Z,13.73
2023-03-19T23:06:51.459Z,14.98
2023-03-19T23:09:26.409Z,14.27
2023-03-19T23:11:53.779Z,13.30
2023-03-19T23:14:36.020Z,14.25
2023-03-19T23:17:17.633Z,11.20
2023-03-19T23:19:44.659Z,12.05
2023-03-19T23:22:15.864Z,12.53
2023-03-19T23:24:42.590Z,12.82
2023-03-19T23:27:28.679Z,12.32
2023-03-19T23:29:55.273Z,13.27
2023-03-19T23:32:22.076Z,14.07
2023-03-19T23:34:59.422Z,13.18
2023-03-19T23:37:27.392Z,12.93
2023-03-19T23:39:53.966Z,11.37
2023-03-19T23:42:27.737Z,13.95
2023-03-19T23:44:59.216Z,13.88
2023-03-19T23:47:27.128Z,13.45
2023-03-19T23:52:20.565Z,13.38
2023-03-19T23:54:49.873Z,13.23
2023-03-19T23:57:17.105Z,12.65
2023-03-19T23:59:47.642Z,12.40
